TimeCST,TemperatureF,Dew PointF,Humidity,Sea Level PressureIn,VisibilityMPH,Wind Direction,Wind SpeedMPH,Gust SpeedMPH,PrecipitationIn,Events,Conditions,WindDirDegrees,DateUTC
12:56 AM,42.1,30.0,62,30.24,10.0,North,4.6,-,N/A,,Clear,10,2012-11-14 06:56:00
1:56 AM,42.1,30.0,62,30.24,10.0,North,3.5,-,N/A,,Clear,350,2012-11-14 07:56:00
2:56 AM,39.9,30.0,68,30.25,10.0,North,4.6,-,N/A,,Clear,350,2012-11-14 08:56:00
3:56 AM,39.0,30.9,73,30.24,10.0,NNE,6.9,-,N/A,,Clear,20,2012-11-14 09:56:00
4:56 AM,39.9,30.9,70,30.24,10.0,NNE,4.6,-,N/A,,Clear,30,2012-11-14 10:56:00
5:45 AM,39.2,32.0,75,30.26,10.0,North,3.5,-,N/A,,Mostly Cloudy,360,2012-11-14 11:45:00
5:56 AM,39.9,32.0,73,30.26,10.0,NNE,3.5,-,N/A,,Overcast,20,2012-11-14 11:56:00
6:32 AM,42.8,33.8,70,30.26,10.0,NE,5.8,-,N/A,,Overcast,40,2012-11-14 12:32:00
6:56 AM,43.0,37.0,80,30.27,10.0,NE,5.8,-,N/A,,Overcast,40,2012-11-14 12:56:00
7:56 AM,44.1,41.0,89,30.28,10.0,ENE,4.6,-,N/A,,Overcast,60,2012-11-14 13:56:00
8:56 AM,48.0,43.0,83,30.28,10.0,ENE,3.5,-,N/A,,Overcast,60,2012-11-14 14:56:00
9:29 AM,50.0,44.6,82,30.27,10.0,NE,6.9,-,N/A,,Overcast,50,2012-11-14 15:29:00
9:56 AM,51.1,45.0,80,30.28,10.0,North,3.5,-,N/A,,Overcast,360,2012-11-14 15:56:00
10:56 AM,53.1,46.0,77,30.28,10.0,NNW,4.6,-,N/A,,Overcast,330,2012-11-14 16:56:00
11:07 AM,53.6,46.4,77,30.27,10.0,NNW,4.6,-,N/A,,Overcast,330,2012-11-14 17:07:00
11:56 AM,57.0,46.9,69,30.24,10.0,NE,6.9,-,N/A,,Overcast,50,2012-11-14 17:56:00
12:56 PM,55.9,46.9,72,30.23,10.0,NW,3.5,-,N/A,,Overcast,320,2012-11-14 18:56:00
1:34 PM,55.4,48.2,77,30.22,10.0,Calm,Calm,-,N/A,,Overcast,0,2012-11-14 19:34:00
1:56 PM,57.0,48.0,72,30.21,10.0,North,3.5,-,N/A,,Overcast,350,2012-11-14 19:56:00
2:56 PM,57.0,48.0,72,30.21,10.0,NNE,4.6,-,N/A,,Overcast,20,2012-11-14 20:56:00
3:56 PM,55.9,48.0,75,30.22,10.0,North,3.5,-,N/A,,Overcast,10,2012-11-14 21:56:00
4:56 PM,55.0,48.0,77,30.23,10.0,Calm,Calm,-,N/A,,Overcast,0,2012-11-14 22:56:00
5:56 PM,55.0,48.0,77,30.25,10.0,North,3.5,-,N/A,,Overcast,360,2012-11-14 23:56:00
6:56 PM,54.0,48.0,80,30.25,10.0,NNE,4.6,-,N/A,,Overcast,20,2012-11-15 00:56:00
7:19 PM,53.6,48.2,82,30.24,10.0,NE,6.9,-,N/A,,Overcast,40,2012-11-15 01:19:00
7:48 PM,53.6,48.2,82,30.25,10.0,East,3.5,-,N/A,,Overcast,80,2012-11-15 01:48:00
7:56 PM,54.0,48.0,80,30.25,10.0,ENE,5.8,-,N/A,,Overcast,60,2012-11-15 01:56:00
8:56 PM,53.1,46.9,80,30.25,10.0,NE,3.5,-,N/A,,Overcast,50,2012-11-15 02:56:00
9:06 PM,53.6,46.4,77,30.25,10.0,ENE,3.5,-,N/A,,Overcast,60,2012-11-15 03:06:00
9:56 PM,52.0,46.9,83,30.24,10.0,NE,4.6,-,N/A,,Overcast,50,2012-11-15 03:56:00
10:56 PM,52.0,46.9,83,30.24,10.0,NE,3.5,-,N/A,,Overcast,50,2012-11-15 04:56:00
11:56 PM,52.0,46.0,80,30.22,10.0,Calm,Calm,-,N/A,,Overcast,0,2012-11-15 05:56:00